createdAt,value
2022-11-19T00:01:10.882Z,13.27
2022-11-19T00:03:38.682Z,13.26
2022-11-19T00:06:07.932Z,13.24
2022-11-19T00:08:34.990Z,13.23
2022-11-19T00:11:15.371Z,13.20
2022-11-19T00:13:43.174Z,13.21
2022-11-19T00:16:12.751Z,13.17
2022-11-19T00:18:40.709Z,13.16
2022-11-19T00:21:12.473Z,13.13
2022-11-19T00:23:39.966Z,13.14
2022-11-19T00:26:11.754Z,13.10
2022-11-19T00:28:39.055Z,13.09
2022-11-19T00:31:08.430Z,13.08
2022-11-19T00:33:35.448Z,13.08
2022-11-19T00:36:03.007Z,13.07
2022-11-19T00:38:30.834Z,13.05
2022-11-19T00:40:57.913Z,13.04
2022-11-19T00:43:43.508Z,13.04
2022-11-19T00:46:10.639Z,13.03
2022-11-19T00:48:39.139Z,13.02
2022-11-19T00:51:09.622Z,13.01
2022-11-19T00:53:36.915Z,13.01
2022-11-19T00:56:06.297Z,13.00
2022-11-19T00:58:33.170Z,13.01
2022-11-19T01:00:59.889Z,13.00
2022-11-19T01:03:26.734Z,13.00
2022-11-19T01:05:53.661Z,12.99
2022-11-19T01:08:20.425Z,13.00
2022-11-19T01:10:47.113Z,13.00
2022-11-19T01:13:32.736Z,13.00
2022-11-19T01:15:59.440Z,13.00
2022-11-19T01:18:26.854Z,12.99
2022-11-19T01:20:53.940Z,13.00
2022-11-19T01:23:20.620Z,12.99
2022-11-19T01:25:47.521Z,13.00
2022-11-19T01:28:14.259Z,12.99
2022-11-19T01:30:42.531Z,12.98
2022-11-19T01:33:16.839Z,12.99
2022-11-19T01:35:54.156Z,13.00
2022-11-19T01:38:20.947Z,13.00
2022-11-19T01:40:47.585Z,13.02
2022-11-19T01:43:14.459Z,13.00
2022-11-19T01:45:44.604Z,13.00
2022-11-19T01:48:14.590Z,13.00
2022-11-19T01:50:59.658Z,13.00
2022-11-19T01:53:29.490Z,13.00
2022-11-19T01:56:03.750Z,13.00
2022-11-19T01:58:40.121Z,13.00
2022-11-19T02:01:10.920Z,13.00
2022-11-19T02:03:38.936Z,13.00
2022-11-19T02:06:06.582Z,13.00
2022-11-19T02:08:45.142Z,13.00
2022-11-19T02:11:18.034Z,13.00
2022-11-19T02:14:13.514Z,13.01
2022-11-19T02:16:54.273Z,12.99
2022-11-19T02:19:34.667Z,12.99
2022-11-19T02:22:20.114Z,13.00
2022-11-19T02:25:20.402Z,12.98
2022-11-19T02:28:08.497Z,12.99
2022-11-19T02:30:40.126Z,12.96
2022-11-19T02:33:14.948Z,12.96
2022-11-19T02:35:41.694Z,12.98
2022-11-19T02:38:40.245Z,12.97
2022-11-19T02:41:38.447Z,12.98
2022-11-19T02:44:35.730Z,12.94
2022-11-19T02:47:05.614Z,12.94
2022-11-19T02:49:34.335Z,12.93
2022-11-19T02:52:01.680Z,12.93
2022-11-19T02:54:28.753Z,12.93
2022-11-19T02:57:00.700Z,12.94
2022-11-19T03:00:01.677Z,12.94
2022-11-19T03:02:53.570Z,12.92
2022-11-19T03:05:22.580Z,12.93
2022-11-19T03:07:50.401Z,12.92
2022-11-19T03:10:18.468Z,12.92
2022-11-19T03:12:51.561Z,12.91
2022-11-19T03:16:06.309Z,12.92
2022-11-19T03:18:35.906Z,12.92
2022-11-19T03:21:15.972Z,12.90
2022-11-19T03:23:53.449Z,12.91
2022-11-19T03:26:40.337Z,12.92
2022-11-19T03:29:10.188Z,12.90
2022-11-19T03:31:38.727Z,12.91
2022-11-19T03:34:11.680Z,12.90
2022-11-19T03:36:40.785Z,12.90
2022-11-19T03:39:14.374Z,12.90
2022-11-19T03:41:42.614Z,12.90
2022-11-19T03:44:31.514Z,12.92
2022-11-19T03:47:02.123Z,12.90
2022-11-19T03:49:31.731Z,12.99
2022-11-19T03:52:19.496Z,12.92
2022-11-19T03:54:46.637Z,12.90
2022-11-19T03:57:16.141Z,12.89
2022-11-19T03:59:42.877Z,12.89
2022-11-19T04:02:11.332Z,12.87
2022-11-19T04:04:38.797Z,12.88
2022-11-19T04:07:08.470Z,12.87
2022-11-19T04:09:35.632Z,12.89
2022-11-19T04:12:02.597Z,12.88
2022-11-19T04:14:29.391Z,12.88
2022-11-19T04:16:56.561Z,12.87
2022-11-19T04:19:23.290Z,12.88
2022-11-19T04:21:50.353Z,12.88
2022-11-19T04:24:17.420Z,12.90
2022-11-19T04:26:44.126Z,12.89
2022-11-19T04:29:10.819Z,12.89
2022-11-19T04:31:37.811Z,12.89
2022-11-19T04:34:04.724Z,12.90
2022-11-19T04:36:31.426Z,12.89
2022-11-19T04:38:58.225Z,12.89
2022-11-19T04:41:25.183Z,12.89
2022-11-19T04:43:51.993Z,12.89
2022-11-19T04:46:18.770Z,12.89
2022-11-19T04:48:45.626Z,12.90
2022-11-19T04:51:12.279Z,12.89
2022-11-19T04:53:39.038Z,12.89
2022-11-19T04:56:06.626Z,12.90
2022-11-19T04:58:34.857Z,12.89
2022-11-19T05:01:01.678Z,12.89
2022-11-19T05:03:28.954Z,12.89
2022-11-19T05:05:55.603Z,12.90
2022-11-19T05:08:22.602Z,12.89
2022-11-19T05:10:49.258Z,12.89
2022-11-19T05:13:16.024Z,12.89
2022-11-19T05:15:42.740Z,12.88
2022-11-19T05:18:09.582Z,12.88
2022-11-19T05:20:36.308Z,12.88
2022-11-19T05:23:03.058Z,12.89
2022-11-19T05:25:29.698Z,12.88
2022-11-19T05:27:56.420Z,12.88
2022-11-19T05:30:23.474Z,12.88
2022-11-19T05:32:50.329Z,12.88
2022-11-19T05:35:17.177Z,12.88
2022-11-19T05:37:43.878Z,12.88
2022-11-19T05:40:10.834Z,12.88
2022-11-19T05:42:37.615Z,12.87
2022-11-19T05:45:04.788Z,12.87
2022-11-19T05:47:31.575Z,12.86
2022-11-19T05:49:58.342Z,12.86
2022-11-19T05:52:25.534Z,12.87
2022-11-19T05:54:52.912Z,12.87
2022-11-19T05:57:19.838Z,12.85
2022-11-19T05:59:46.562Z,12.83
2022-11-19T06:02:13.307Z,12.83
2022-11-19T06:04:39.986Z,12.83
2022-11-19T06:07:12.089Z,12.83
2022-11-19T06:09:40.113Z,12.83
2022-11-19T06:12:07.154Z,12.82
2022-11-19T06:14:33.974Z,12.83
2022-11-19T06:17:01.449Z,12.83
2022-11-19T06:19:28.170Z,12.84
2022-11-19T06:21:54.849Z,12.84
2022-11-19T06:24:21.721Z,12.82
2022-11-19T06:26:48.507Z,12.83
2022-11-19T06:29:16.536Z,12.83
2022-11-19T06:31:43.757Z,12.84
2022-11-19T06:34:11.538Z,12.83
2022-11-19T06:36:42.793Z,12.83
2022-11-19T06:39:12.014Z,12.83
2022-11-19T06:41:38.726Z,12.84
2022-11-19T06:44:05.441Z,12.83
2022-11-19T06:46:32.121Z,12.82
2022-11-19T06:48:58.954Z,12.80
2022-11-19T06:51:25.892Z,12.70
2022-11-19T06:53:52.621Z,12.57
2022-11-19T06:56:19.295Z,12.39
2022-11-19T06:58:46.188Z,12.25
2022-11-19T07:01:15.155Z,12.14
2022-11-19T07:03:42.328Z,12.06
2022-11-19T07:06:09.265Z,12.02
2022-11-19T07:08:37.435Z,12.00
2022-11-19T07:11:24.523Z,11.95
2022-11-19T07:13:57.848Z,11.92
2022-11-19T07:16:30.599Z,11.86
2022-11-19T07:19:02.328Z,11.78
2022-11-19T07:21:33.265Z,11.69
2022-11-19T07:24:01.639Z,11.64
2022-11-19T07:26:28.460Z,11.57
2022-11-19T07:28:55.285Z,11.52
2022-11-19T07:31:21.956Z,11.51
2022-11-19T07:33:48.808Z,11.49
2022-11-19T07:36:18.374Z,11.46
2022-11-19T07:38:45.987Z,11.49
2022-11-19T07:41:31.891Z,11.44
2022-11-19T07:43:58.624Z,11.36
2022-11-19T07:46:25.302Z,11.34
2022-11-19T07:48:56.869Z,11.15
2022-11-19T07:51:24.314Z,11.09
2022-11-19T07:53:51.437Z,11.14
2022-11-19T07:56:19.070Z,11.23
2022-11-19T07:58:45.832Z,11.31
2022-11-19T08:01:18.523Z,11.20
2022-11-19T08:03:49.614Z,11.02
2022-11-19T08:06:20.878Z,11.04
2022-11-19T08:08:47.900Z,11.16
2022-11-19T08:11:16.231Z,11.24
2022-11-19T08:13:43.617Z,11.23
2022-11-19T08:16:12.631Z,11.10
2022-11-19T08:18:39.771Z,11.11
2022-11-19T08:21:11.339Z,11.16
2022-11-19T08:23:39.061Z,11.22
2022-11-19T08:26:09.015Z,11.31
2022-11-19T08:28:35.878Z,11.29
2022-11-19T08:31:09.886Z,11.33
2022-11-19T08:33:36.722Z,11.41
2022-11-19T08:36:03.909Z,11.44
2022-11-19T08:38:34.537Z,11.49
2022-11-19T08:41:22.619Z,11.51
2022-11-19T08:43:49.362Z,11.60
2022-11-19T08:46:16.071Z,11.70
2022-11-19T08:48:42.994Z,11.78
2022-11-19T08:51:10.639Z,11.77
2022-11-19T08:53:37.645Z,11.78
2022-11-19T08:56:05.416Z,11.81
2022-11-19T08:58:32.482Z,11.84
2022-11-19T09:00:59.290Z,11.78
2022-11-19T09:03:26.409Z,11.73
2022-11-19T09:06:00.448Z,11.59
2022-11-19T09:08:27.433Z,11.67
2022-11-19T09:10:55.489Z,11.84
2022-11-19T09:13:22.514Z,11.94
2022-11-19T09:15:50.017Z,11.96
2022-11-19T09:18:17.849Z,11.93
2022-11-19T09:20:44.509Z,12.00
2022-11-19T09:23:11.346Z,12.12
2022-11-19T09:25:38.057Z,12.23
2022-11-19T09:28:05.072Z,12.33
2022-11-19T09:30:32.170Z,12.44
2022-11-19T09:33:04.193Z,12.42
2022-11-19T09:35:34.395Z,12.34
2022-11-19T09:38:01.210Z,12.29
2022-11-19T09:40:28.078Z,12.26
2022-11-19T09:42:59.106Z,12.21
2022-11-19T09:45:53.383Z,12.12
2022-11-19T09:48:32.518Z,12.04
2022-11-19T09:51:07.695Z,12.03
2022-11-19T09:53:55.023Z,11.96
2022-11-19T09:56:33.569Z,11.95
2022-11-19T09:59:03.702Z,12.03
2022-11-19T10:01:30.469Z,12.07
2022-11-19T10:03:57.467Z,12.06
2022-11-19T10:06:40.099Z,12.07
2022-11-19T10:09:17.767Z,11.86
2022-11-19T10:12:12.615Z,11.75
2022-11-19T10:14:45.411Z,11.84
2022-11-19T10:17:58.624Z,11.76
2022-11-19T10:20:33.237Z,11.71
2022-11-19T10:23:17.133Z,11.75
2022-11-19T10:25:46.531Z,11.61
2022-11-19T10:28:15.894Z,11.41
2022-11-19T10:30:49.254Z,11.41
2022-11-19T10:33:29.438Z,11.46
2022-11-19T10:36:03.616Z,11.36
2022-11-19T10:38:49.998Z,11.36
2022-11-19T10:41:48.587Z,11.42
2022-11-19T10:44:43.086Z,11.39
2022-11-19T10:47:17.789Z,11.18
2022-11-19T10:49:46.017Z,11.30
2022-11-19T10:52:28.901Z,11.47
2022-11-19T10:55:20.805Z,11.59
2022-11-19T10:57:48.518Z,11.53
2022-11-19T11:00:17.130Z,11.45
2022-11-19T11:02:54.525Z,11.27
2022-11-19T11:05:21.315Z,10.91
2022-11-19T11:07:50.322Z,11.04
2022-11-19T11:10:28.399Z,11.27
2022-11-19T11:13:16.791Z,11.39
2022-11-19T11:15:50.587Z,11.49
2022-11-19T11:18:18.213Z,11.60
2022-11-19T11:20:47.770Z,11.66
2022-11-19T11:23:19.796Z,11.80
2022-11-19T11:25:53.926Z,11.82
2022-11-19T11:28:22.477Z,11.86
2022-11-19T11:31:10.349Z,11.61
2022-11-19T11:33:41.232Z,11.61
2022-11-19T11:36:14.045Z,11.69
2022-11-19T11:38:49.187Z,11.72
2022-11-19T11:44:14.638Z,11.84
2022-11-19T11:46:45.933Z,11.96
2022-11-19T11:49:18.957Z,11.97
2022-11-19T11:51:45.724Z,12.00
2022-11-19T11:54:20.513Z,12.00
2022-11-19T11:56:47.646Z,11.86
2022-11-19T11:59:21.667Z,11.91
2022-11-19T12:02:01.761Z,12.02
2022-11-19T12:04:29.250Z,12.14
2022-11-19T12:07:40.252Z,12.21
2022-11-19T12:10:35.818Z,12.32
2022-11-19T12:13:17.661Z,12.42
2022-11-19T12:15:56.444Z,12.48
2022-11-19T12:18:39.509Z,12.64
2022-11-19T12:21:11.937Z,12.79
2022-11-19T12:24:17.247Z,12.97
2022-11-19T12:26:58.931Z,13.15
2022-11-19T12:29:42.013Z,13.17
2022-11-19T12:32:19.407Z,13.19
2022-11-19T12:34:56.748Z,13.26
2022-11-19T12:37:39.062Z,13.28
2022-11-19T12:40:26.547Z,13.01
2022-11-19T12:43:20.240Z,12.88
2022-11-19T12:46:05.677Z,12.84
2022-11-19T12:48:47.217Z,12.75
2022-11-19T12:51:33.284Z,12.72
2022-11-19T12:54:31.708Z,12.73
2022-11-19T12:57:11.993Z,12.78
2022-11-19T12:59:48.350Z,12.80
2022-11-19T13:02:58.625Z,12.78
2022-11-19T13:05:37.717Z,12.71
2022-11-19T13:08:40.236Z,12.67
2022-11-19T13:11:16.413Z,12.59
2022-11-19T13:13:55.194Z,12.56
2022-11-19T13:16:22.753Z,12.47
2022-11-19T13:18:52.388Z,12.47
2022-11-19T13:21:24.522Z,12.52
2022-11-19T13:23:52.418Z,12.56
2022-11-19T13:26:30.347Z,12.57
2022-11-19T13:29:30.032Z,12.58
2022-11-19T13:32:01.365Z,12.53
2022-11-19T13:34:47.402Z,12.57
2022-11-19T13:37:22.606Z,12.74
2022-11-19T13:39:53.678Z,12.87
2022-11-19T13:42:40.541Z,12.87
2022-11-19T13:45:14.863Z,12.75
2022-11-19T13:47:58.093Z,12.80
2022-11-19T13:50:31.330Z,12.86
2022-11-19T13:53:05.586Z,12.92
2022-11-19T13:55:37.796Z,12.88
2022-11-19T13:58:19.634Z,12.77
2022-11-19T14:01:09.760Z,12.78
2022-11-19T14:04:13.772Z,12.84
2022-11-19T14:06:55.652Z,12.87
2022-11-19T14:09:36.173Z,12.88
2022-11-19T14:12:57.236Z,12.89
2022-11-19T14:16:00.729Z,12.92
2022-11-19T14:18:54.907Z,12.89
2022-11-19T14:21:44.090Z,12.81
2022-11-19T14:24:44.234Z,12.77
2022-11-19T14:27:17.878Z,12.79
2022-11-19T14:29:44.862Z,12.79
2022-11-19T14:32:11.558Z,12.76
2022-11-19T14:35:22.128Z,12.73
2022-11-19T14:38:05.862Z,12.67
2022-11-19T14:40:33.680Z,12.57
2022-11-19T14:43:18.798Z,12.54
2022-11-19T14:46:00.986Z,12.52
2022-11-19T14:48:29.421Z,12.50
2022-11-19T14:51:06.308Z,12.48
2022-11-19T14:53:34.622Z,12.50
2022-11-19T14:56:01.858Z,12.43
2022-11-19T14:58:28.772Z,12.43
2022-11-19T15:01:13.584Z,12.44
2022-11-19T15:03:52.510Z,12.41
2022-11-19T15:06:19.919Z,12.40
2022-11-19T15:08:57.274Z,12.39
2022-11-19T15:11:23.980Z,12.35
2022-11-19T15:14:27.987Z,12.35
2022-11-19T15:16:55.582Z,12.31
2022-11-19T15:19:37.697Z,12.33
2022-11-19T15:22:48.951Z,12.31
2022-11-19T15:25:39.698Z,12.21
2022-11-19T15:28:09.372Z,12.24
2022-11-19T15:30:43.602Z,12.11
2022-11-19T15:33:16.266Z,12.05
2022-11-19T15:36:08.563Z,11.98
2022-11-19T15:38:42.553Z,11.88
2022-11-19T15:41:14.268Z,11.86
2022-11-19T15:43:43.877Z,11.89
2022-11-19T15:46:13.878Z,11.80
2022-11-19T15:49:14.154Z,11.77
2022-11-19T15:52:02.027Z,11.75
2022-11-19T15:54:33.693Z,11.75
2022-11-19T15:57:17.753Z,11.78
2022-11-19T15:59:51.789Z,11.70
2022-11-19T16:02:22.143Z,11.61
2022-11-19T16:04:50.846Z,11.51
2022-11-19T16:07:23.402Z,11.51
2022-11-19T16:09:50.861Z,11.55
2022-11-19T16:12:40.883Z,11.48
2022-11-19T16:15:42.163Z,11.47
2022-11-19T16:18:13.683Z,11.37
2022-11-19T16:20:40.858Z,11.40
2022-11-19T16:23:09.002Z,11.45
2022-11-19T16:25:37.744Z,11.51
2022-11-19T16:28:07.333Z,11.53
2022-11-19T16:30:49.206Z,11.57
2022-11-19T16:33:21.447Z,11.58
2022-11-19T16:35:52.814Z,11.53
2022-11-19T16:38:28.239Z,11.50
2022-11-19T16:41:14.618Z,11.51
2022-11-19T16:43:48.374Z,11.53
2022-11-19T16:46:17.683Z,11.52
2022-11-19T16:48:50.588Z,11.52
2022-11-19T16:51:29.422Z,11.59
2022-11-19T16:53:56.133Z,11.67
2022-11-19T16:56:23.425Z,11.75
2022-11-19T16:58:54.547Z,11.84
2022-11-19T17:01:23.475Z,11.93
2022-11-19T17:03:59.875Z,11.99
2022-11-19T17:06:31.308Z,12.06
2022-11-19T17:09:00.544Z,12.13
2022-11-19T17:12:04.346Z,12.22
2022-11-19T17:14:31.173Z,12.26
2022-11-19T17:16:57.976Z,12.31
2022-11-19T17:19:27.218Z,12.35
2022-11-19T17:22:00.232Z,12.39
2022-11-19T17:24:31.653Z,12.44
2022-11-19T17:26:58.766Z,12.48
2022-11-19T17:29:26.297Z,12.51
2022-11-19T17:31:54.653Z,12.54
2022-11-19T17:34:22.472Z,12.59
2022-11-19T17:36:50.153Z,12.62
2022-11-19T17:39:22.516Z,12.64
2022-11-19T17:42:14.837Z,12.67
2022-11-19T17:44:44.754Z,12.70
2022-11-19T17:47:23.627Z,12.80
2022-11-19T17:49:51.358Z,12.76
2022-11-19T17:52:27.118Z,12.74
2022-11-19T17:54:56.302Z,12.74
2022-11-19T17:57:23.004Z,12.76
2022-11-19T17:59:49.951Z,12.78
2022-11-19T18:02:25.060Z,12.78
2022-11-19T18:04:52.717Z,12.81
2022-11-19T18:07:19.518Z,12.83
2022-11-19T18:09:46.793Z,12.83
2022-11-19T18:12:18.288Z,12.84
2022-11-19T18:14:45.189Z,12.87
2022-11-19T18:17:13.099Z,12.87
2022-11-19T18:19:40.223Z,12.89
2022-11-19T18:22:10.092Z,12.90
2022-11-19T18:24:36.873Z,12.91
2022-11-19T18:27:03.881Z,12.92
2022-11-19T18:29:31.972Z,12.93
2022-11-19T18:31:58.689Z,12.93
2022-11-19T18:34:25.554Z,12.94
2022-11-19T18:36:52.321Z,12.94
2022-11-19T18:39:19.677Z,12.96
2022-11-19T18:41:47.037Z,12.97
2022-11-19T18:44:34.113Z,12.97
2022-11-19T18:47:03.078Z,12.96
2022-11-19T18:49:29.929Z,12.97
2022-11-19T18:51:56.772Z,12.96
2022-11-19T18:54:23.593Z,12.98
2022-11-19T18:56:50.407Z,12.99
2022-11-19T18:59:17.123Z,12.99
2022-11-19T19:01:44.038Z,12.99
2022-11-19T19:04:14.353Z,12.98
2022-11-19T19:06:41.731Z,12.99
2022-11-19T19:09:10.435Z,12.98
2022-11-19T19:11:56.550Z,12.99
2022-11-19T19:14:23.364Z,12.98
2022-11-19T19:16:51.019Z,12.99
2022-11-19T19:19:20.150Z,12.99
2022-11-19T19:21:47.370Z,12.99
2022-11-19T19:24:14.548Z,12.99
2022-11-19T19:26:41.741Z,13.00
2022-11-19T19:29:08.591Z,13.00
2022-11-19T19:31:35.952Z,13.00
2022-11-19T19:34:03.439Z,13.00
2022-11-19T19:36:30.529Z,12.99
2022-11-19T19:38:57.228Z,13.00
2022-11-19T19:41:25.567Z,13.01
2022-11-19T19:43:53.724Z,13.00
2022-11-19T19:46:22.341Z,13.01
2022-11-19T19:48:53.847Z,13.01
2022-11-19T19:51:22.489Z,13.01
2022-11-19T19:53:51.090Z,13.01
2022-11-19T19:56:23.187Z,13.00
2022-11-19T19:58:50.942Z,13.00
2022-11-19T20:01:19.220Z,13.00
2022-11-19T20:03:49.260Z,12.99
2022-11-19T20:06:21.793Z,13.00
2022-11-19T20:08:48.511Z,13.00
2022-11-19T20:11:20.690Z,12.99
2022-11-19T20:13:47.999Z,12.99
2022-11-19T20:16:18.514Z,12.99
2022-11-19T20:18:45.871Z,13.08
2022-11-19T20:21:14.594Z,13.01
2022-11-19T20:23:42.373Z,12.98
2022-11-19T20:26:16.026Z,12.96
2022-11-19T20:28:43.045Z,12.95
2022-11-19T20:31:17.942Z,12.95
2022-11-19T20:33:45.805Z,12.94
2022-11-19T20:36:15.088Z,12.95
2022-11-19T20:38:43.543Z,12.94
2022-11-19T20:41:32.157Z,12.95
2022-11-19T20:44:18.080Z,12.96
2022-11-19T20:46:45.178Z,12.95
2022-11-19T20:49:16.932Z,12.96
2022-11-19T20:51:45.098Z,12.95
2022-11-19T20:54:12.359Z,12.95
2022-11-19T20:56:39.657Z,12.93
2022-11-19T20:59:06.490Z,12.94
2022-11-19T21:01:33.859Z,12.94
2022-11-19T21:04:00.958Z,12.94
2022-11-19T21:06:27.927Z,12.94
2022-11-19T21:08:54.585Z,12.94
2022-11-19T21:11:21.629Z,12.94
2022-11-19T21:13:48.365Z,12.93
2022-11-19T21:16:18.726Z,12.93
2022-11-19T21:18:45.932Z,12.94
2022-11-19T21:21:15.217Z,12.93
2022-11-19T21:23:42.677Z,12.94
2022-11-19T21:26:16.959Z,12.92
2022-11-19T21:28:48.499Z,12.93
2022-11-19T21:31:16.377Z,12.91
2022-11-19T21:33:44.042Z,12.93
2022-11-19T21:36:11.623Z,12.93
2022-11-19T21:38:38.649Z,12.93
2022-11-19T21:41:05.819Z,12.93
2022-11-19T21:43:32.764Z,12.92
2022-11-19T21:45:59.562Z,12.91
2022-11-19T21:48:27.229Z,12.90
2022-11-19T21:50:54.506Z,12.91
2022-11-19T21:53:21.494Z,12.89
2022-11-19T21:55:48.739Z,12.90
2022-11-19T21:58:15.609Z,12.89
2022-11-19T22:00:43.975Z,12.90
2022-11-19T22:03:10.806Z,12.90
2022-11-19T22:05:37.679Z,12.89
2022-11-19T22:08:04.447Z,12.90
2022-11-19T22:10:31.339Z,12.90
2022-11-19T22:12:59.046Z,12.89
2022-11-19T22:15:27.028Z,12.89
2022-11-19T22:17:54.070Z,12.88
2022-11-19T22:20:20.948Z,12.87
2022-11-19T22:22:47.609Z,12.87
2022-11-19T22:25:14.655Z,12.86
2022-11-19T22:27:41.901Z,12.85
2022-11-19T22:30:10.236Z,12.84
2022-11-19T22:32:37.278Z,12.85
2022-11-19T22:35:04.874Z,12.84
2022-11-19T22:37:32.075Z,12.83
2022-11-19T22:39:58.909Z,12.83
2022-11-19T22:42:25.710Z,12.83
2022-11-19T22:44:52.962Z,12.82
2022-11-19T22:47:19.678Z,12.81
2022-11-19T22:49:46.395Z,12.80
2022-11-19T22:52:14.678Z,12.81
2022-11-19T22:54:42.088Z,12.79
2022-11-19T22:57:09.363Z,12.79
2022-11-19T22:59:36.209Z,12.79
2022-11-19T23:02:03.010Z,12.78
2022-11-19T23:04:29.751Z,12.77
2022-11-19T23:06:56.825Z,12.77
2022-11-19T23:09:23.726Z,12.76
2022-11-19T23:12:09.032Z,12.77
2022-11-19T23:14:35.798Z,12.76
2022-11-19T23:17:02.527Z,12.75
2022-11-19T23:19:29.346Z,12.75
2022-11-19T23:21:55.949Z,12.74
2022-11-19T23:24:22.702Z,12.74
2022-11-19T23:26:49.415Z,12.72
2022-11-19T23:29:16.250Z,12.74
2022-11-19T23:31:42.894Z,12.74
2022-11-19T23:34:09.633Z,12.74
2022-11-19T23:36:38.614Z,12.74
2022-11-19T23:39:08.151Z,12.73
2022-11-19T23:41:34.948Z,12.74
2022-11-19T23:44:01.950Z,12.74
2022-11-19T23:46:31.606Z,12.74
2022-11-19T23:48:58.956Z,12.73
2022-11-19T23:51:29.558Z,12.72
2022-11-19T23:53:56.285Z,12.81
2022-11-19T23:56:24.455Z,12.75
2022-11-19T23:58:51.857Z,12.71
